Time;durP1;ratioP1;P1;durP2;ratioP2;P2;SDS_P1;SDS_P2;PMS_P1;PMS_P2;Temp;Humidity;BMP_temperature;BMP_pressure;BME280_temperature;BME280_humidity;BME280_pressure;Samples;Min_cycle;Max_cycle;Signal;HPM_P1;HPM_P2
2022/08/29 00:00:22;;;;;;;;;;;;;;;;;;5048032;28;19909;-45
2022/08/29 00:02:48;;;;;;;;;;;;;;;;;;5048210;28;20003;-48
2022/08/29 00:05:14;;;;;;;;;;;;;;;;;;5047738;28;19916;-44
2022/08/29 00:07:40;;;;;;;;;;;;;;;;;;5047906;28;19909;-45
2022/08/29 00:10:08;;;;;;;;;;;;;;;;;;5048204;28;19962;-45
2022/08/29 00:12:33;;;;;;;;;;;;;;;;;;5047823;28;19994;-45
2022/08/29 00:14:59;;;;;;;;;;;;;;;;;;5048168;28;20376;-44
2022/08/29 00:17:25;;;;;;;;;;;;;;;;;;5048346;28;19940;-44
2022/08/29 00:19:51;;;;;;;;;;;;;;;;;;5047372;28;20389;-44
2022/08/29 00:22:17;;;;;;;;;;;;;;;;;;5047768;28;19915;-44
2022/08/29 00:24:43;;;;;;;;;;;;;;;;;;5048092;28;20342;-45
2022/08/29 00:27:10;;;;;;;;;;;;;;;;;;5046928;28;19920;-44
2022/08/29 00:29:36;;;;;;;;;;;;;;;;;;5047475;28;19915;-45
2022/08/29 00:32:02;;;;;;;;;;;;;;;;;;5046919;28;19909;-44
2022/08/29 00:34:28;;;;;;;;;;;;;;;;;;5048040;28;20390;-44
2022/08/29 00:36:54;;;;;;;;;;;;;;;;;;5048222;28;20307;-45
2022/08/29 00:39:20;;;;;;;;;;;;;;;;;;5047305;28;19916;-46
2022/08/29 00:41:46;;;;;;;;;;;;;;;;;;5047413;28;20003;-44
2022/08/29 00:44:12;;;;;;;;;;;;;;;;;;5047347;28;20476;-44
2022/08/29 00:46:38;;;;;;;;;;;;;;;;;;5046351;28;19924;-46
2022/08/29 00:49:04;;;;;;;;;;;;;;;;;;5047469;28;20004;-44
2022/08/29 00:51:30;;;;;;;;;;;;;;;;;;5047137;28;19913;-45
2022/08/29 00:53:56;;;;;;;;;;;;;;;;;;5048201;28;20288;-43
2022/08/29 00:56:22;;;;;;;;;;;;;;;;;;5047004;28;19916;-44
2022/08/29 00:58:48;;;;;;;;;;;;;;;;;;5047441;28;20690;-45
2022/08/29 01:01:14;;;;;;;;;;;;;;;;;;5046794;28;19970;-43
2022/08/29 01:03:40;;;;;;;;;;;;;;;;;;5046126;28;19913;-44
2022/08/29 01:06:07;;;;;;;;;;;;;;;;;;5046932;28;20331;-44
2022/08/29 01:08:33;;;;;;;;;;;;;;;;;;5046027;28;19939;-45
2022/08/29 01:13:44;;;;;;;;;;;;;;;;;;5047015;28;19923;-43
2022/08/29 01:16:09;;;;;;;;;;;;;;;;;;5046720;28;19912;-45
2022/08/29 01:18:35;;;;;;;;;;;;;;;;;;5046545;28;19908;-47
2022/08/29 01:21:01;;;;;;;;;;;;;;;;;;5046739;28;19978;-43
2022/08/29 01:23:27;;;;;;;;;;;;;;;;;;5046562;28;20438;-44
2022/08/29 01:25:53;;;;;;;;;;;;;;;;;;5046297;28;19923;-45
2022/08/29 01:28:19;;;;;;;;;;;;;;;;;;5045518;28;19925;-45
2022/08/29 01:30:45;;;;;;;;;;;;;;;;;;5046496;28;19960;-46
2022/08/29 01:33:11;;;;;;;;;;;;;;;;;;5045674;28;19908;-45
2022/08/29 01:35:37;;;;;;;;;;;;;;;;;;5046631;28;20007;-45
2022/08/29 01:38:03;;;;;;;;;;;;;;;;;;5046376;28;19913;-45
2022/08/29 01:40:29;;;;;;;;;;;;;;;;;;5045749;28;19990;-44
2022/08/29 01:42:56;;;;;;;;;;;;;;;;;;5045974;28;20342;-44
2022/08/29 01:45:22;;;;;;;;;;;;;;;;;;5027079;28;19909;-44
2022/08/29 01:47:48;;;;;;;;;;;;;;;;;;5044564;28;19912;-44
2022/08/29 01:50:14;;;;;;;;;;;;;;;;;;5046370;28;19909;-44
2022/08/29 01:52:39;;;;;;;;;;;;;;;;;;5046711;28;20422;-44
2022/08/29 01:55:05;;;;;;;;;;;;;;;;;;5046322;28;20381;-44
2022/08/29 01:57:31;;;;;;;;;;;;;;;;;;5046014;28;19909;-44
2022/08/29 01:59:57;;;;;;;;;;;;;;;;;;5046041;28;20012;-48
2022/08/29 02:02:23;;;;;;;;;;;;;;;;;;5045045;28;20346;-45
2022/08/29 02:04:49;;;;;;;;;;;;;;;;;;5045941;28;20027;-44
2022/08/29 02:07:16;;;;;;;;;;;;;;;;;;5045798;28;19917;-45
2022/08/29 02:09:43;;;;;;;;;;;;;;;;;;5045756;28;19909;-45
2022/08/29 02:12:09;;;;;;;;;;;;;;;;;;5046466;28;19915;-46
2022/08/29 02:14:35;;;;;;;;;;;;;;;;;;5045288;28;20003;-47
2022/08/29 02:17:01;;;;;;;;;;;;;;;;;;5045282;28;19928;-44
2022/08/29 02:19:27;;;;;;;;;;;;;;;;;;5045415;28;19909;-45
2022/08/29 02:21:53;;;;;;;;;;;;;;;;;;5045776;28;20311;-43
2022/08/29 02:24:19;;;;;;;;;;;;;;;;;;5045453;28;19908;-44
2022/08/29 02:26:44;;;;;;;;;;;;;;;;;;5045553;28;19921;-44
2022/08/29 02:29:11;;;;;;;;;;;;;;;;;;5045947;28;19916;-45
2022/08/29 02:31:37;;;;;;;;;;;;;;;;;;5045798;28;20291;-45
2022/08/29 02:34:04;;;;;;;;;;;;;;;;;;5045612;28;19909;-44
2022/08/29 02:36:30;;;;;;;;;;;;;;;;;;5045186;28;19916;-45
2022/08/29 02:38:56;;;;;;;;;;;;;;;;;;5045621;28;19909;-45
2022/08/29 02:41:22;;;;;;;;;;;;;;;;;;5045337;28;19954;-44
2022/08/29 02:43:48;;;;;;;;;;;;;;;;;;5045023;28;19916;-44
2022/08/29 02:46:14;;;;;;;;;;;;;;;;;;5044692;28;19945;-45
2022/08/29 02:48:40;;;;;;;;;;;;;;;;;;5045474;28;19923;-44
2022/08/29 02:51:06;;;;;;;;;;;;;;;;;;5046127;28;19904;-45
2022/08/29 02:53:32;;;;;;;;;;;;;;;;;;5044249;28;19966;-44
2022/08/29 02:55:58;;;;;;;;;;;;;;;;;;5045245;28;20384;-43
2022/08/29 02:58:24;;;;;;;;;;;;;;;;;;5045043;28;20236;-45
2022/08/29 03:00:50;;;;;;;;;;;;;;;;;;5044955;28;20011;-44
2022/08/29 03:03:16;;;;;;;;;;;;;;;;;;5045050;28;19909;-45
2022/08/29 03:05:42;;;;;;;;;;;;;;;;;;5045027;28;19916;-44
2022/08/29 03:08:08;;;;;;;;;;;;;;;;;;5044434;28;19966;-44
2022/08/29 03:10:34;;;;;;;;;;;;;;;;;;5044519;28;20362;-45
2022/08/29 03:13:00;;;;;;;;;;;;;;;;;;5045141;28;20034;-45
2022/08/29 03:15:26;;;;;;;;;;;;;;;;;;5044761;28;19921;-44
2022/08/29 03:17:53;;;;;;;;;;;;;;;;;;5045034;28;20402;-48
2022/08/29 03:20:19;;;;;;;;;;;;;;;;;;5044936;28;20133;-44
2022/08/29 03:22:45;;;;;;;;;;;;;;;;;;5044357;28;20037;-43
2022/08/29 03:25:11;;;;;;;;;;;;;;;;;;5044778;28;20111;-43
2022/08/29 03:27:37;;;;;;;;;;;;;;;;;;5044453;28;20079;-46
2022/08/29 03:30:03;;;;;;;;;;;;;;;;;;5044696;28;19916;-45
2022/08/29 03:32:29;;;;;;;;;;;;;;;;;;5044130;28;20299;-44
2022/08/29 03:34:56;;;;;;;;;;;;;;;;;;5045199;28;20442;-44
2022/08/29 03:37:22;;;;;;;;;;;;;;;;;;5043726;28;19948;-44
2022/08/29 03:39:48;;;;;;;;;;;;;;;;;;5045128;28;19986;-44
2022/08/29 03:42:14;;;;;;;;;;;;;;;;;;5043594;28;20352;-44
2022/08/29 03:44:40;;;;;;;;;;;;;;;;;;5044416;28;19927;-44
2022/08/29 03:47:06;;;;;;;;;;;;;;;;;;5044734;28;20311;-43
2022/08/29 03:49:32;;;;;;;;;;;;;;;;;;5044609;28;19909;-47
2022/08/29 03:51:58;;;;;;;;;;;;;;;;;;5044838;28;19948;-44
2022/08/29 03:54:24;;;;;;;;;;;;;;;;;;5044374;28;19912;-45
2022/08/29 03:56:50;;;;;;;;;;;;;;;;;;5047672;28;20419;-44
2022/08/29 03:59:16;;;;;;;;;;;;;;;;;;5048159;28;19909;-45
2022/08/29 04:01:42;;;;;;;;;;;;;;;;;;5048436;28;19905;-44
2022/08/29 04:05:05;;;;;;;;;;;;;;;;;;5048216;28;20007;-46
2022/08/29 04:06:54;;;;;;;;;;;;;;;;;;5048595;28;19928;-42
2022/08/29 04:09:20;;;;;;;;;;;;;;;;;;5048828;28;20447;-44
2022/08/29 04:11:46;;;;;;;;;;;;;;;;;;5047186;28;20224;-45
2022/08/29 04:14:11;;;;;;;;;;;;;;;;;;5047672;28;20164;-46
2022/08/29 04:16:38;;;;;;;;;;;;;;;;;;5047954;28;20441;-44
2022/08/29 04:19:05;;;;;;;;;;;;;;;;;;5048037;28;19966;-45
2022/08/29 04:21:30;;;;;;;;;;;;;;;;;;5047709;28;20312;-44
2022/08/29 04:23:56;;;;;;;;;;;;;;;;;;5047950;28;19909;-45
2022/08/29 04:26:22;;;;;;;;;;;;;;;;;;5047739;28;19921;-47
2022/08/29 04:28:49;;;;;;;;;;;;;;;;;;5047451;28;20311;-44
2022/08/29 04:31:19;;;;;;;;;;;;;;;;;;5047774;28;20003;-45
2022/08/29 04:33:45;;;;;;;;;;;;;;;;;;5047868;28;19917;-45
2022/08/29 04:36:11;;;;;;;;;;;;;;;;;;5047525;28;19913;-44
2022/08/29 04:38:37;;;;;;;;;;;;;;;;;;5046510;28;19912;-44
2022/08/29 04:41:03;;;;;;;;;;;;;;;;;;5047140;28;19958;-44
2022/08/29 04:43:29;;;;;;;;;;;;;;;;;;5047042;28;19921;-43
2022/08/29 04:45:55;;;;;;;;;;;;;;;;;;5047612;28;19912;-44
2022/08/29 04:48:21;;;;;;;;;;;;;;;;;;5047689;28;20312;-43
2022/08/29 04:50:47;;;;;;;;;;;;;;;;;;5047472;28;20113;-43
2022/08/29 04:53:13;;;;;;;;;;;;;;;;;;5047150;28;20277;-46
2022/08/29 04:55:38;;;;;;;;;;;;;;;;;;5046511;28;20084;-44
2022/08/29 04:58:05;;;;;;;;;;;;;;;;;;5047143;28;19909;-44
2022/08/29 05:00:31;;;;;;;;;;;;;;;;;;5046844;28;19913;-45
2022/08/29 05:02:58;;;;;;;;;;;;;;;;;;5047412;28;19913;-46
2022/08/29 05:05:24;;;;;;;;;;;;;;;;;;5046762;28;20455;-43
2022/08/29 05:07:50;;;;;;;;;;;;;;;;;;5048074;28;20007;-45
2022/08/29 05:10:16;;;;;;;;;;;;;;;;;;5045831;28;19999;-44
2022/08/29 05:12:42;;;;;;;;;;;;;;;;;;5046749;28;19908;-46
2022/08/29 05:15:08;;;;;;;;;;;;;;;;;;5046129;28;19940;-44
2022/08/29 05:17:34;;;;;;;;;;;;;;;;;;5046668;28;19917;-45
2022/08/29 05:20:00;;;;;;;;;;;;;;;;;;5047057;28;19908;-44
2022/08/29 05:22:26;;;;;;;;;;;;;;;;;;5046434;28;20460;-45
2022/08/29 05:24:52;;;;;;;;;;;;;;;;;;5047471;28;19916;-44
2022/08/29 05:27:18;;;;;;;;;;;;;;;;;;5045835;28;19924;-43
2022/08/29 05:29:44;;;;;;;;;;;;;;;;;;5046652;28;20288;-45
2022/08/29 05:32:11;;;;;;;;;;;;;;;;;;5047153;28;19915;-44
2022/08/29 05:34:37;;;;;;;;;;;;;;;;;;5046382;28;19996;-44
2022/08/29 05:37:04;;;;;;;;;;;;;;;;;;5046482;28;19909;-44
2022/08/29 05:39:29;;;;;;;;;;;;;;;;;;5045811;28;20299;-43
2022/08/29 05:41:55;;;;;;;;;;;;;;;;;;5045632;28;19913;-45
2022/08/29 05:44:21;;;;;;;;;;;;;;;;;;5046790;28;19928;-43
2022/08/29 05:46:47;;;;;;;;;;;;;;;;;;5046274;28;20380;-44
2022/08/29 05:49:13;;;;;;;;;;;;;;;;;;5046252;28;19962;-44
2022/08/29 05:51:39;;;;;;;;;;;;;;;;;;5046288;28;19916;-43
2022/08/29 05:54:06;;;;;;;;;;;;;;;;;;5046298;28;19909;-44
2022/08/29 05:56:33;;;;;;;;;;;;;;;;;;5044861;28;19917;-45
2022/08/29 05:58:59;;;;;;;;;;;;;;;;;;5046108;28;19909;-45
2022/08/29 06:01:25;;;;;;;;;;;;;;;;;;5044817;28;19912;-43
2022/08/29 06:03:51;;;;;;;;;;;;;;;;;;5046601;28;20363;-46
2022/08/29 06:06:17;;;;;;;;;;;;;;;;;;5045871;28;19916;-44
2022/08/29 06:08:43;;;;;;;;;;;;;;;;;;5045831;28;19908;-44
2022/08/29 06:11:10;;;;;;;;;;;;;;;;;;5045891;28;20039;-45
2022/08/29 06:13:37;;;;;;;;;;;;;;;;;;5045424;28;19913;-43
2022/08/29 06:16:03;;;;;;;;;;;;;;;;;;5044420;28;19940;-44
2022/08/29 06:18:29;;;;;;;;;;;;;;;;;;5044700;28;19909;-45
2022/08/29 06:20:55;;;;;;;;;;;;;;;;;;5045166;28;20434;-45
2022/08/29 06:23:21;;;;;;;;;;;;;;;;;;5033424;28;19957;-44
2022/08/29 06:25:47;;;;;;;;;;;;;;;;;;5034260;28;19916;-45
2022/08/29 06:28:13;;;;;;;;;;;;;;;;;;5046599;28;20017;-43
2022/08/29 06:30:39;;;;;;;;;;;;;;;;;;5046891;28;19908;-44
2022/08/29 06:33:05;;;;;;;;;;;;;;;;;;5046523;28;19913;-42
2022/08/29 06:35:32;;;;;;;;;;;;;;;;;;5046844;28;19999;-42
2022/08/29 06:37:58;;;;;;;;;;;;;;;;;;5047167;28;19924;-43
2022/08/29 06:40:24;;;;;;;;;;;;;;;;;;5048169;28;20365;-42
2022/08/29 06:42:50;;;;;;;;;;;;;;;;;;5036792;28;19939;-42
2022/08/29 06:45:16;;;;;;;;;;;;;;;;;;5026998;28;19909;-41
2022/08/29 06:47:42;;;;;;;;;;;;;;;;;;5026610;28;19996;-42
2022/08/29 06:50:08;;;;;;;;;;;;;;;;;;5026412;28;19906;-42
2022/08/29 06:52:34;;;;;;;;;;;;;;;;;;5044618;28;19963;-42
2022/08/29 06:55:00;;;;;;;;;;;;;;;;;;5046787;28;19920;-42
2022/08/29 06:57:26;;;;;;;;;;;;;;;;;;5045078;28;19917;-42
2022/08/29 06:59:52;;;;;;;;;;;;;;;;;;5047453;28;20439;-42
2022/08/29 07:02:17;;;;;;;;;;;;;;;;;;5046177;28;19970;-42
2022/08/29 07:04:43;;;;;;;;;;;;;;;;;;5045579;28;19913;-43
2022/08/29 07:07:09;;;;;;;;;;;;;;;;;;5046272;28;19916;-44
2022/08/29 07:09:35;;;;;;;;;;;;;;;;;;5046302;28;20004;-42
2022/08/29 07:12:01;;;;;;;;;;;;;;;;;;5046164;28;19917;-43
2022/08/29 07:14:27;;;;;;;;;;;;;;;;;;5046234;28;19916;-42
2022/08/29 07:16:55;;;;;;;;;;;;;;;;;;5044736;28;19948;-42
2022/08/29 07:19:21;;;;;;;;;;;;;;;;;;5046306;28;20439;-42
2022/08/29 07:21:48;;;;;;;;;;;;;;;;;;5046322;28;19917;-42
2022/08/29 07:24:14;;;;;;;;;;;;;;;;;;5044956;28;20687;-42
2022/08/29 07:26:40;;;;;;;;;;;;;;;;;;5046105;28;19913;-42
2022/08/29 07:29:06;;;;;;;;;;;;;;;;;;5046362;28;19919;-42
2022/08/29 07:31:33;;;;;;;;;;;;;;;;;;5049520;28;19912;-42
2022/08/29 07:33:59;;;;;;;;;;;;;;;;;;5050576;28;19932;-44
2022/08/29 07:36:24;;;;;;;;;;;;;;;;;;5049910;28;20391;-43
2022/08/29 07:38:50;;;;;;;;;;;;;;;;;;5050957;28;19915;-42
2022/08/29 07:41:16;;;;;;;;;;;;;;;;;;5049678;28;19935;-43
2022/08/29 07:43:42;;;;;;;;;;;;;;;;;;5043765;28;19921;-43
2022/08/29 07:46:08;;;;;;;;;;;;;;;;;;5048918;28;19923;-42
2022/08/29 07:48:34;;;;;;;;;;;;;;;;;;5049782;28;19916;-43
2022/08/29 07:51:00;;;;;;;;;;;;;;;;;;5050030;28;19916;-42
2022/08/29 07:53:26;;;;;;;;;;;;;;;;;;5049077;28;19924;-43
2022/08/29 07:55:52;;;;;;;;;;;;;;;;;;5049505;28;19921;-42
2022/08/29 07:58:18;;;;;;;;;;;;;;;;;;5048444;28;19913;-42
2022/08/29 08:00:44;;;;;;;;;;;;;;;;;;5047761;28;19976;-43
2022/08/29 08:03:11;;;;;;;;;;;;;;;;;;5049975;28;19909;-42
2022/08/29 08:05:37;;;;;;;;;;;;;;;;;;5047868;28;19913;-42
2022/08/29 08:08:08;;;;;;;;;;;;;;;;;;5049783;28;19966;-42
2022/08/29 08:10:33;;;;;;;;;;;;;;;;;;5048653;28;19919;-42
2022/08/29 08:12:59;;;;;;;;;;;;;;;;;;5050192;28;20443;-42
2022/08/29 08:15:26;;;;;;;;;;;;;;;;;;5048517;28;19909;-43
2022/08/29 08:17:52;;;;;;;;;;;;;;;;;;5050354;28;19991;-42
2022/08/29 08:20:18;;;;;;;;;;;;;;;;;;5048777;28;19909;-42
2022/08/29 08:22:44;;;;;;;;;;;;;;;;;;5048849;28;19917;-43
2022/08/29 08:25:10;;;;;;;;;;;;;;;;;;5047864;28;19915;-42
2022/08/29 08:27:36;;;;;;;;;;;;;;;;;;5047334;28;20003;-42
2022/08/29 08:30:02;;;;;;;;;;;;;;;;;;5046667;28;19912;-43
2022/08/29 08:32:28;;;;;;;;;;;;;;;;;;5048829;28;19940;-42
2022/08/29 08:34:54;;;;;;;;;;;;;;;;;;5046712;28;20303;-42
2022/08/29 08:37:20;;;;;;;;;;;;;;;;;;5049828;28;19936;-42
2022/08/29 08:39:46;;;;;;;;;;;;;;;;;;5047708;28;19909;-43
2022/08/29 08:42:13;;;;;;;;;;;;;;;;;;5048418;28;19912;-43
2022/08/29 08:44:39;;;;;;;;;;;;;;;;;;5047944;28;19920;-42
2022/08/29 08:47:04;;;;;;;;;;;;;;;;;;5048639;28;19959;-43
2022/08/29 08:49:30;;;;;;;;;;;;;;;;;;5047163;28;19913;-43
2022/08/29 08:51:56;;;;;;;;;;;;;;;;;;5049705;28;19913;-42
2022/08/29 08:54:22;;;;;;;;;;;;;;;;;;5046605;28;19924;-42
2022/08/29 08:56:48;;;;;;;;;;;;;;;;;;5048622;28;19916;-44
2022/08/29 08:59:15;;;;;;;;;;;;;;;;;;5048130;28;19917;-41
2022/08/29 09:01:42;;;;;;;;;;;;;;;;;;5048958;28;19913;-41
2022/08/29 09:04:09;;;;;;;;;;;;;;;;;;5048354;28;19913;-41
2022/08/29 09:06:35;;;;;;;;;;;;;;;;;;5047525;28;20327;-41
2022/08/29 09:09:01;;;;;;;;;;;;;;;;;;5047627;28;19959;-40
2022/08/29 09:11:27;;;;;;;;;;;;;;;;;;5046388;28;19916;-41
2022/08/29 09:13:53;;;;;;;;;;;;;;;;;;5047297;28;20049;-41
2022/08/29 09:16:18;;;;;;;;;;;;;;;;;;5041738;28;19916;-41
2022/08/29 09:18:44;;;;;;;;;;;;;;;;;;5044347;28;19917;-41
2022/08/29 09:21:11;;;;;;;;;;;;;;;;;;5039233;28;19913;-41
2022/08/29 09:23:38;;;;;;;;;;;;;;;;;;5047455;28;20550;-41
2022/08/29 09:26:04;;;;;;;;;;;;;;;;;;5045635;28;19921;-41
2022/08/29 09:28:30;;;;;;;;;;;;;;;;;;5043708;28;20081;-41
2022/08/29 09:30:56;;;;;;;;;;;;;;;;;;5046553;28;19916;-41
2022/08/29 09:33:22;;;;;;;;;;;;;;;;;;5047885;28;19917;-41
2022/08/29 09:35:48;;;;;;;;;;;;;;;;;;5047627;28;19916;-41
2022/08/29 09:38:14;;;;;;;;;;;;;;;;;;5048107;28;19924;-41
2022/08/29 09:40:40;;;;;;;;;;;;;;;;;;5045724;28;19912;-42
2022/08/29 09:43:07;;;;;;;;;;;;;;;;;;5047765;28;19917;-41
2022/08/29 09:45:32;;;;;;;;;;;;;;;;;;5041626;28;19913;-42
2022/08/29 09:47:59;;;;;;;;;;;;;;;;;;5044515;28;19917;-41
2022/08/29 09:50:25;;;;;;;;;;;;;;;;;;5037956;28;19909;-41
2022/08/29 09:52:50;;;;;;;;;;;;;;;;;;5043677;28;19920;-41
2022/08/29 09:55:17;;;;;;;;;;;;;;;;;;5046155;28;20451;-41
2022/08/29 09:57:43;;;;;;;;;;;;;;;;;;5046884;28;19919;-42
2022/08/29 10:00:11;;;;;;;;;;;;;;;;;;5046489;28;20460;-41
2022/08/29 10:02:37;;;;;;;;;;;;;;;;;;5047822;28;20262;-41
2022/08/29 10:05:04;;;;;;;;;;;;;;;;;;5045160;28;20042;-42
2022/08/29 10:07:30;;;;;;;;;;;;;;;;;;5047636;28;19987;-41
2022/08/29 10:09:56;;;;;;;;;;;;;;;;;;5046333;28;19995;-42
2022/08/29 10:12:22;;;;;;;;;;;;;;;;;;5048639;28;19913;-41
2022/08/29 10:14:48;;;;;;;;;;;;;;;;;;5045596;28;19962;-41
2022/08/29 10:19:59;;;;;;;;;;;;;;;;;;5042258;28;19932;-41
2022/08/29 10:22:25;;;;;;;;;;;;;;;;;;5047759;28;19913;-41
2022/08/29 10:24:52;;;;;;;;;;;;;;;;;;5046772;28;19916;-42
2022/08/29 10:27:18;;;;;;;;;;;;;;;;;;5046544;28;19923;-41
2022/08/29 10:29:44;;;;;;;;;;;;;;;;;;5045994;28;19917;-42
2022/08/29 10:32:10;;;;;;;;;;;;;;;;;;5046822;28;19966;-41
2022/08/29 10:34:36;;;;;;;;;;;;;;;;;;5044883;28;19925;-41
2022/08/29 10:37:02;;;;;;;;;;;;;;;;;;5048203;28;19924;-42
2022/08/29 10:39:28;;;;;;;;;;;;;;;;;;5043429;28;19986;-42
2022/08/29 10:41:54;;;;;;;;;;;;;;;;;;5047057;28;19961;-41
2022/08/29 10:44:21;;;;;;;;;;;;;;;;;;5045709;28;19943;-42
2022/08/29 10:46:47;;;;;;;;;;;;;;;;;;5047343;28;19952;-43
2022/08/29 10:49:15;;;;;;;;;;;;;;;;;;5046133;28;19963;-41
2022/08/29 10:51:41;;;;;;;;;;;;;;;;;;5046756;28;19917;-42
2022/08/29 10:54:07;;;;;;;;;;;;;;;;;;5046436;28;19916;-43
2022/08/29 10:56:33;;;;;;;;;;;;;;;;;;5045805;28;19913;-41
2022/08/29 10:58:59;;;;;;;;;;;;;;;;;;5045509;28;19999;-42
2022/08/29 11:01:25;;;;;;;;;;;;;;;;;;5046908;28;20046;-41
2022/08/29 11:03:51;;;;;;;;;;;;;;;;;;5047051;28;20007;-41
2022/08/29 11:06:17;;;;;;;;;;;;;;;;;;5046020;28;20379;-42
2022/08/29 11:08:44;;;;;;;;;;;;;;;;;;5046033;28;19912;-42
2022/08/29 11:11:11;;;;;;;;;;;;;;;;;;5045654;28;19920;-42
2022/08/29 11:13:37;;;;;;;;;;;;;;;;;;5046432;28;19913;-42
2022/08/29 11:16:03;;;;;;;;;;;;;;;;;;5046509;28;19913;-42
2022/08/29 11:18:29;;;;;;;;;;;;;;;;;;5043821;28;19913;-41
2022/08/29 11:20:56;;;;;;;;;;;;;;;;;;5044383;28;19916;-41
2022/08/29 11:23:22;;;;;;;;;;;;;;;;;;5045653;28;19948;-42
2022/08/29 11:25:48;;;;;;;;;;;;;;;;;;5042686;28;19986;-43
2022/08/29 11:28:14;;;;;;;;;;;;;;;;;;5046420;28;19920;-42
2022/08/29 11:30:40;;;;;;;;;;;;;;;;;;5045886;28;19936;-43
2022/08/29 11:33:06;;;;;;;;;;;;;;;;;;5046582;28;20007;-42
2022/08/29 11:35:32;;;;;;;;;;;;;;;;;;5045866;28;19916;-42
2022/08/29 11:37:58;;;;;;;;;;;;;;;;;;5046283;28;19917;-41
2022/08/29 11:40:24;;;;;;;;;;;;;;;;;;5046030;28;19986;-42
2022/08/29 11:42:50;;;;;;;;;;;;;;;;;;5047341;28;20066;-42
2022/08/29 11:45:16;;;;;;;;;;;;;;;;;;5041722;28;19917;-43
2022/08/29 11:47:42;;;;;;;;;;;;;;;;;;5044660;28;19921;-42
2022/08/29 11:50:08;;;;;;;;;;;;;;;;;;5044132;28;20287;-42
2022/08/29 11:52:34;;;;;;;;;;;;;;;;;;5045233;28;19924;-43
2022/08/29 11:55:00;;;;;;;;;;;;;;;;;;5044133;28;20379;-42
2022/08/29 11:57:27;;;;;;;;;;;;;;;;;;5044391;28;19995;-41
2022/08/29 11:59:53;;;;;;;;;;;;;;;;;;5042826;28;20395;-42
2022/08/29 12:02:19;;;;;;;;;;;;;;;;;;5046040;28;20011;-41
2022/08/29 12:04:46;;;;;;;;;;;;;;;;;;5041663;28;19916;-42
2022/08/29 12:07:12;;;;;;;;;;;;;;;;;;5045817;28;19913;-42
2022/08/29 12:09:39;;;;;;;;;;;;;;;;;;5040009;28;19940;-42
2022/08/29 12:12:11;;;;;;;;;;;;;;;;;;5045163;28;20011;-43
2022/08/29 12:14:37;;;;;;;;;;;;;;;;;;5043174;28;20199;-42
2022/08/29 12:17:03;;;;;;;;;;;;;;;;;;5047993;28;20103;-43
2022/08/29 12:19:29;;;;;;;;;;;;;;;;;;5046878;28;20207;-42
2022/08/29 12:21:56;;;;;;;;;;;;;;;;;;5048825;28;19964;-42
2022/08/29 12:24:22;;;;;;;;;;;;;;;;;;5047389;28;19959;-44
2022/08/29 12:26:48;;;;;;;;;;;;;;;;;;5048231;28;20306;-43
2022/08/29 12:29:15;;;;;;;;;;;;;;;;;;5044430;28;19966;-43
2022/08/29 12:31:43;;;;;;;;;;;;;;;;;;5048316;28;19967;-42
2022/08/29 12:34:09;;;;;;;;;;;;;;;;;;5047623;28;19962;-44
2022/08/29 12:36:35;;;;;;;;;;;;;;;;;;5047665;28;19921;-42
2022/08/29 12:39:01;;;;;;;;;;;;;;;;;;5047484;28;20014;-43
2022/08/29 12:41:28;;;;;;;;;;;;;;;;;;5047892;28;19968;-42
2022/08/29 12:43:55;;;;;;;;;;;;;;;;;;5047725;28;19998;-42
2022/08/29 12:46:21;;;;;;;;;;;;;;;;;;5047091;28;19913;-42
2022/08/29 12:48:47;;;;;;;;;;;;;;;;;;5047520;28;19916;-43
2022/08/29 12:51:13;;;;;;;;;;;;;;;;;;5047412;28;20262;-42
2022/08/29 12:53:39;;;;;;;;;;;;;;;;;;5047450;28;19913;-42
2022/08/29 12:56:05;;;;;;;;;;;;;;;;;;5047399;28;20167;-58
2022/08/29 12:58:31;;;;;;;;;;;;;;;;;;5046213;28;20312;-58
2022/08/29 13:00:57;;;;;;;;;;;;;;;;;;5046678;28;19959;-43
2022/08/29 13:03:23;;;;;;;;;;;;;;;;;;5048124;28;20389;-44
2022/08/29 13:05:49;;;;;;;;;;;;;;;;;;5047163;28;19919;-44
2022/08/29 13:08:15;;;;;;;;;;;;;;;;;;5047315;28;20380;-43
2022/08/29 13:10:42;;;;;;;;;;;;;;;;;;5046797;28;19963;-43
2022/08/29 13:13:08;;;;;;;;;;;;;;;;;;5047581;28;19995;-42
2022/08/29 13:15:34;;;;;;;;;;;;;;;;;;5043835;28;20042;-43
2022/08/29 13:18:00;;;;;;;;;;;;;;;;;;5047825;28;20411;-43
2022/08/29 13:20:26;;;;;;;;;;;;;;;;;;5045247;28;19920;-43
2022/08/29 13:22:52;;;;;;;;;;;;;;;;;;5045722;28;19921;-45
2022/08/29 13:25:18;;;;;;;;;;;;;;;;;;5047276;28;19987;-42
2022/08/29 13:27:44;;;;;;;;;;;;;;;;;;5047597;28;20345;-42
2022/08/29 13:30:10;;;;;;;;;;;;;;;;;;5046878;28;19923;-43
2022/08/29 13:32:36;;;;;;;;;;;;;;;;;;5047231;28;19916;-43
2022/08/29 13:35:02;;;;;;;;;;;;;;;;;;5045296;28;19913;-43
2022/08/29 13:37:28;;;;;;;;;;;;;;;;;;5028539;28;19940;-44
2022/08/29 13:39:54;;;;;;;;;;;;;;;;;;5045565;28;19917;-42
2022/08/29 13:42:20;;;;;;;;;;;;;;;;;;5049109;28;19913;-43
2022/08/29 13:44:46;;;;;;;;;;;;;;;;;;5047113;28;19964;-42
2022/08/29 13:47:12;;;;;;;;;;;;;;;;;;5048877;28;20299;-42
2022/08/29 13:49:39;;;;;;;;;;;;;;;;;;5045415;28;19971;-43
2022/08/29 13:52:05;;;;;;;;;;;;;;;;;;5047887;28;19963;-43
2022/08/29 13:54:31;;;;;;;;;;;;;;;;;;5046355;28;19916;-43
2022/08/29 13:56:57;;;;;;;;;;;;;;;;;;5047082;28;20288;-43
2022/08/29 13:59:24;;;;;;;;;;;;;;;;;;5046037;28;19917;-43
2022/08/29 14:01:50;;;;;;;;;;;;;;;;;;5047351;28;19924;-43
2022/08/29 14:04:16;;;;;;;;;;;;;;;;;;5046621;28;19913;-43
2022/08/29 14:06:42;;;;;;;;;;;;;;;;;;5027866;28;19913;-43
2022/08/29 14:09:08;;;;;;;;;;;;;;;;;;5040069;28;19909;-42
2022/08/29 14:11:34;;;;;;;;;;;;;;;;;;5043783;28;20447;-43
2022/08/29 14:14:00;;;;;;;;;;;;;;;;;;5046466;28;20044;-43
2022/08/29 14:16:26;;;;;;;;;;;;;;;;;;5047094;28;19974;-43
2022/08/29 14:18:52;;;;;;;;;;;;;;;;;;5046348;28;19995;-43
2022/08/29 14:21:19;;;;;;;;;;;;;;;;;;5047051;28;19999;-42
2022/08/29 14:23:45;;;;;;;;;;;;;;;;;;5047128;28;19916;-43
2022/08/29 14:26:11;;;;;;;;;;;;;;;;;;5046748;28;19920;-42
2022/08/29 14:28:36;;;;;;;;;;;;;;;;;;5047098;28;19944;-58
2022/08/29 14:31:02;;;;;;;;;;;;;;;;;;5046947;28;19961;-58
2022/08/29 14:33:28;;;;;;;;;;;;;;;;;;5043728;28;19921;-57
2022/08/29 14:35:54;;;;;;;;;;;;;;;;;;5041700;28;19915;-58
2022/08/29 14:38:21;;;;;;;;;;;;;;;;;;5034194;28;19935;-58
2022/08/29 14:40:47;;;;;;;;;;;;;;;;;;5034289;28;19917;-57
2022/08/29 14:43:13;;;;;;;;;;;;;;;;;;5045683;28;19920;-57
2022/08/29 14:45:39;;;;;;;;;;;;;;;;;;5046433;28;19916;-57
2022/08/29 14:48:05;;;;;;;;;;;;;;;;;;5047078;28;20341;-57
2022/08/29 14:50:31;;;;;;;;;;;;;;;;;;5045452;28;19927;-58
2022/08/29 14:52:57;;;;;;;;;;;;;;;;;;5043940;28;19920;-57
2022/08/29 14:55:23;;;;;;;;;;;;;;;;;;5044288;28;19913;-58
2022/08/29 14:57:49;;;;;;;;;;;;;;;;;;5047453;28;19916;-58
2022/08/29 15:00:15;;;;;;;;;;;;;;;;;;5045265;28;19917;-57
2022/08/29 15:02:41;;;;;;;;;;;;;;;;;;5044630;28;20386;-57
2022/08/29 15:05:07;;;;;;;;;;;;;;;;;;5042241;28;19952;-57
2022/08/29 15:07:33;;;;;;;;;;;;;;;;;;5045434;28;20503;-56
2022/08/29 15:09:59;;;;;;;;;;;;;;;;;;5043944;28;19935;-56
2022/08/29 15:12:27;;;;;;;;;;;;;;;;;;5046655;28;19908;-57
2022/08/29 15:14:53;;;;;;;;;;;;;;;;;;5046147;28;19916;-57
2022/08/29 15:17:19;;;;;;;;;;;;;;;;;;5047340;28;19920;-58
2022/08/29 15:19:45;;;;;;;;;;;;;;;;;;5045796;28;19909;-57
2022/08/29 15:22:11;;;;;;;;;;;;;;;;;;5045888;28;19970;-56
2022/08/29 15:24:37;;;;;;;;;;;;;;;;;;5045411;28;19925;-57
2022/08/29 15:27:04;;;;;;;;;;;;;;;;;;5047257;28;20031;-57
2022/08/29 15:29:30;;;;;;;;;;;;;;;;;;5045349;28;20284;-57
2022/08/29 15:31:56;;;;;;;;;;;;;;;;;;5044690;28;19917;-57
2022/08/29 15:34:22;;;;;;;;;;;;;;;;;;5045474;28;19917;-58
2022/08/29 15:36:48;;;;;;;;;;;;;;;;;;5045212;28;20402;-58
2022/08/29 15:39:14;;;;;;;;;;;;;;;;;;5045165;28;20024;-58
2022/08/29 15:41:40;;;;;;;;;;;;;;;;;;5045059;28;19912;-58
2022/08/29 15:44:06;;;;;;;;;;;;;;;;;;5044425;28;20047;-43
2022/08/29 15:46:32;;;;;;;;;;;;;;;;;;5046143;28;19939;-44
2022/08/29 15:48:58;;;;;;;;;;;;;;;;;;5045871;28;19908;-43
2022/08/29 15:51:26;;;;;;;;;;;;;;;;;;5045184;28;20384;-43
2022/08/29 15:53:52;;;;;;;;;;;;;;;;;;5050489;28;20379;-42
2022/08/29 15:56:17;;;;;;;;;;;;;;;;;;5049628;28;20011;-43
2022/08/29 15:58:44;;;;;;;;;;;;;;;;;;5047976;28;20521;-43
2022/08/29 16:01:10;;;;;;;;;;;;;;;;;;5049601;28;19913;-43
2022/08/29 16:03:36;;;;;;;;;;;;;;;;;;5049572;28;19931;-43
2022/08/29 16:06:02;;;;;;;;;;;;;;;;;;5049610;28;19956;-43
2022/08/29 16:08:28;;;;;;;;;;;;;;;;;;5048343;28;19909;-43
2022/08/29 16:10:54;;;;;;;;;;;;;;;;;;5049852;28;19936;-44
2022/08/29 16:13:20;;;;;;;;;;;;;;;;;;5049158;28;19908;-43
2022/08/29 16:15:47;;;;;;;;;;;;;;;;;;5049758;28;19920;-44
2022/08/29 16:18:13;;;;;;;;;;;;;;;;;;5048475;28;19909;-44
2022/08/29 16:20:40;;;;;;;;;;;;;;;;;;5048744;28;19920;-43
2022/08/29 16:23:06;;;;;;;;;;;;;;;;;;5045532;28;19948;-44
2022/08/29 16:25:32;;;;;;;;;;;;;;;;;;5046748;28;19943;-43
2022/08/29 16:27:58;;;;;;;;;;;;;;;;;;5046739;28;20303;-58
2022/08/29 16:30:24;;;;;;;;;;;;;;;;;;5047008;28;19980;-57
2022/08/29 16:32:50;;;;;;;;;;;;;;;;;;5049153;28;19915;-57
2022/08/29 16:35:15;;;;;;;;;;;;;;;;;;5044890;28;19919;-57
2022/08/29 16:37:42;;;;;;;;;;;;;;;;;;5049068;28;19913;-57
2022/08/29 16:40:08;;;;;;;;;;;;;;;;;;5046065;28;19944;-58
2022/08/29 16:42:35;;;;;;;;;;;;;;;;;;5047965;28;19955;-57